SE-0015 weather

Orrlanda Flygfält
Jämtlande län, Sweden

Public forecast

Using degrees Celsius for public forecast. Weather courtesy of forecast.io.

Closest aviation weather report (METAR) to Orrlanda Flygfält

Closest report is Åre Östersund Airport, 6.3 nm (11.7 km) NNE. Retrieved 2020/04/10 02:20 UTC (3 minutes ago):

ESNZ 100220Z AUTO 29012KT 9999 OVC086/// M01/M02 Q1018 RESHUP

Closest aviation forecast (TAF) to Orrlanda Flygfält

Forecast is more than 12 hours old.

Closest forecast is Sundsvall-Härnösand Airport, 89.1 nm (165.0 km) ESE. Retrieved 2016/05/29 09:33 UTC (4 years ago):

TAF TAF ESNN 290830Z 2909/3018 07006KT 9999 SCT045 BECMG 2913/2915 14010KT